createdAt,value
2019-05-11T00:02:32.891Z,98052.00
2019-05-11T00:05:14.299Z,98088.00
2019-05-11T00:07:54.890Z,98000.00
2019-05-11T00:10:36.287Z,98018.00
2019-05-11T00:13:17.984Z,97973.00
2019-05-11T00:15:58.993Z,97993.00
2019-05-11T00:18:40.461Z,98048.00
2019-05-11T00:21:22.024Z,97998.00
2019-05-11T00:24:03.355Z,98005.00
2019-05-11T00:26:44.800Z,97989.00
2019-05-11T00:29:25.650Z,97982.00
2019-05-11T00:32:06.504Z,97989.00
2019-05-11T00:34:47.932Z,97971.00
2019-05-11T00:37:28.721Z,97955.00
2019-05-11T00:40:14.368Z,97948.00
2019-05-11T00:42:52.614Z,97972.00
2019-05-11T00:45:34.238Z,97949.00
2019-05-11T00:48:15.713Z,97949.00
2019-05-11T00:50:56.403Z,97960.00
2019-05-11T00:53:37.846Z,97945.00
2019-05-11T00:56:19.163Z,98004.00
2019-05-11T00:59:00.557Z,97943.00
2019-05-11T01:01:41.358Z,97850.00
2019-05-11T01:04:22.116Z,97960.00
2019-05-11T01:07:02.840Z,97958.00
2019-05-11T01:09:44.450Z,97979.00
2019-05-11T01:12:25.130Z,97942.00
2019-05-11T01:15:05.891Z,97963.00
2019-05-11T01:17:47.563Z,97934.00
2019-05-11T01:20:29.100Z,97931.00
2019-05-11T01:23:09.946Z,97948.00
2019-05-11T01:25:51.254Z,97919.00
2019-05-11T01:28:32.805Z,97950.00
2019-05-11T01:31:14.473Z,97915.00
2019-05-11T01:33:56.099Z,97905.00
2019-05-11T01:36:37.103Z,97910.00
2019-05-11T01:42:28.456Z,97921.00
2019-05-11T01:45:10.043Z,97920.00
2019-05-11T01:47:50.854Z,97942.00
2019-05-11T01:50:32.436Z,97873.00
2019-05-11T01:56:19.263Z,97886.00
2019-05-11T01:59:00.778Z,97893.00
2019-05-11T02:01:42.225Z,97887.00
2019-05-11T02:04:22.796Z,97916.00
2019-05-11T02:07:03.637Z,97803.00
2019-05-11T02:09:44.992Z,97857.00
2019-05-11T02:12:25.717Z,97933.00
2019-05-11T02:15:06.385Z,97826.00
2019-05-11T02:17:47.191Z,97882.00
2019-05-11T02:20:28.880Z,97878.00
2019-05-11T02:23:09.519Z,97770.00
2019-05-11T02:25:50.565Z,97877.00
2019-05-11T02:28:31.811Z,97877.00
2019-05-11T02:31:13.070Z,97875.00
2019-05-11T02:33:54.124Z,97860.00
2019-05-11T02:36:35.166Z,97864.00
2019-05-11T02:39:15.918Z,97849.00
2019-05-11T02:41:57.595Z,97847.00
2019-05-11T02:44:57.355Z,97843.00
2019-05-11T02:47:38.819Z,97848.00
2019-05-11T02:50:20.347Z,97851.00
2019-05-11T02:53:01.061Z,97861.00
2019-05-11T02:55:41.819Z,97858.00
2019-05-11T02:58:23.217Z,97856.00
2019-05-11T03:01:04.805Z,97851.00
2019-05-11T03:03:46.270Z,97854.00
2019-05-11T03:09:46.847Z,97844.00
2019-05-11T03:12:27.593Z,97980.00
2019-05-11T03:15:09.033Z,97803.00
2019-05-11T03:17:50.216Z,97842.00
2019-05-11T03:20:31.615Z,97765.00
2019-05-11T03:23:12.290Z,97852.00
2019-05-11T03:25:53.371Z,97850.00
2019-05-11T03:28:34.236Z,97839.00
2019-05-11T03:31:14.937Z,97861.00
2019-05-11T03:33:55.948Z,97851.00
2019-05-11T03:36:37.559Z,97817.00
2019-05-11T03:39:19.284Z,97828.00
2019-05-11T03:42:13.857Z,97815.00
2019-05-11T03:44:42.919Z,97888.00
2019-05-11T03:47:23.802Z,97789.00
2019-05-11T03:50:04.536Z,97820.00
2019-05-11T03:52:45.509Z,97767.00
2019-05-11T03:58:31.441Z,97808.00
2019-05-11T04:01:12.085Z,97757.00
2019-05-11T04:03:52.845Z,97735.00
2019-05-11T04:06:33.516Z,97750.00
2019-05-11T04:09:14.511Z,97748.00
2019-05-11T04:11:56.180Z,97739.00
2019-05-11T04:14:37.195Z,97744.00
2019-05-11T04:17:18.025Z,97754.00
2019-05-11T04:19:58.933Z,97752.00
2019-05-11T04:22:40.081Z,97724.00
2019-05-11T04:25:21.541Z,97720.00
2019-05-11T04:28:02.806Z,97731.00
2019-05-11T04:30:43.392Z,97744.00
2019-05-11T04:42:55.794Z,97726.00
2019-05-11T04:45:34.686Z,97678.00
2019-05-11T04:48:16.259Z,97695.00
2019-05-11T04:54:03.105Z,97601.00
2019-05-11T05:06:22.343Z,97715.00
2019-05-11T05:33:17.788Z,97668.00
2019-05-11T05:43:02.100Z,97671.00
2019-05-11T06:04:58.042Z,97665.00
2019-05-11T06:07:46.370Z,97668.00
2019-05-11T06:10:34.738Z,97673.00
2019-05-11T06:13:23.031Z,97648.00
2019-05-11T06:16:11.331Z,97659.00
2019-05-11T06:25:22.011Z,97637.00
2019-05-11T06:28:10.309Z,97649.00
2019-05-11T06:30:51.648Z,97639.00
2019-05-11T06:36:51.815Z,97570.00
2019-05-11T06:39:33.267Z,97545.00
2019-05-11T06:48:24.438Z,97620.00
2019-05-11T06:51:05.042Z,97605.00
2019-05-11T06:53:46.610Z,97606.00
2019-05-11T06:56:28.139Z,97629.00
2019-05-11T07:05:50.267Z,97667.00
2019-05-11T07:11:50.201Z,97628.00
2019-05-11T07:14:31.517Z,97624.00
2019-05-11T07:17:12.736Z,97634.00
2019-05-11T07:19:53.490Z,97673.00
2019-05-11T07:22:35.248Z,97642.00
2019-05-11T07:25:16.321Z,97646.00
2019-05-11T07:27:57.756Z,97651.00
2019-05-11T07:30:39.304Z,97650.00
2019-05-11T07:33:20.064Z,97690.00
2019-05-11T07:36:01.672Z,97680.00
2019-05-11T07:38:42.277Z,97649.00
2019-05-11T07:41:42.651Z,97658.00
2019-05-11T07:44:35.877Z,97674.00
2019-05-11T07:47:07.953Z,97643.00
2019-05-11T07:49:49.193Z,97650.00
2019-05-11T07:52:30.606Z,97642.00
2019-05-11T07:55:11.545Z,97641.00
2019-05-11T07:57:52.227Z,97648.00
2019-05-11T08:00:36.485Z,97636.00
2019-05-11T08:03:18.098Z,97634.00
2019-05-11T08:09:28.805Z,97682.00
2019-05-11T08:12:08.894Z,97641.00
2019-05-11T08:21:21.666Z,97645.00
2019-05-11T08:26:53.371Z,97641.00
2019-05-11T08:29:57.922Z,97634.00
2019-05-11T08:32:53.339Z,97639.00
2019-05-11T08:35:11.023Z,97641.00
2019-05-11T08:37:54.226Z,97650.00
2019-05-11T08:46:28.154Z,97638.00
2019-05-11T08:58:00.240Z,97636.00
2019-05-11T09:00:40.977Z,97704.00
2019-05-11T09:03:22.441Z,97633.00
2019-05-11T09:06:04.039Z,97636.00
2019-05-11T09:15:01.928Z,97691.00
2019-05-11T09:17:42.660Z,97653.00
2019-05-11T09:20:24.032Z,97620.00
2019-05-11T09:23:08.059Z,97676.00
2019-05-11T09:25:48.125Z,97686.00
2019-05-11T09:28:29.733Z,97680.00
2019-05-11T09:31:11.305Z,97662.00
2019-05-11T09:36:58.650Z,97657.00
2019-05-11T09:39:39.588Z,97654.00
2019-05-11T09:42:20.428Z,97685.00
2019-05-11T09:45:01.762Z,97650.00
2019-05-11T09:47:43.345Z,97681.00
2019-05-11T09:50:43.577Z,97678.00
2019-05-11T09:53:25.048Z,97657.00
2019-05-11T09:56:08.070Z,97679.00
2019-05-11T09:58:49.411Z,97638.00
2019-05-11T10:04:37.832Z,97642.00
2019-05-11T10:10:21.616Z,97677.00
2019-05-11T10:13:10.074Z,97674.00
2019-05-11T10:19:08.490Z,97659.00
2019-05-11T10:31:01.306Z,97689.00
2019-05-11T10:40:18.943Z,97685.00
2019-05-11T10:43:08.039Z,97702.00
2019-05-11T10:45:58.815Z,97673.00
2019-05-11T10:56:01.660Z,97671.00
2019-05-11T11:13:04.089Z,97684.00
2019-05-11T11:23:35.334Z,97692.00
2019-05-11T11:51:51.262Z,97711.00
2019-05-11T11:54:32.650Z,97704.00
2019-05-11T11:57:13.441Z,97703.00
2019-05-11T11:59:54.889Z,97744.00
2019-05-11T12:04:55.201Z,97726.00
2019-05-11T12:10:32.907Z,97736.00
2019-05-11T12:13:21.283Z,97739.00
2019-05-11T12:26:13.658Z,97781.00
2019-05-11T12:29:19.879Z,97785.00
2019-05-11T12:32:19.678Z,97792.00
2019-05-11T12:38:23.509Z,97785.00
2019-05-11T12:41:04.966Z,97840.00
2019-05-11T12:43:45.886Z,97813.00
2019-05-11T12:52:42.767Z,97831.00
2019-05-11T13:02:08.278Z,97822.00
2019-05-11T13:32:30.109Z,97827.00
2019-05-11T13:35:18.497Z,97765.00
2019-05-11T13:41:14.225Z,97807.00
2019-05-11T13:46:58.408Z,97805.00
2019-05-11T13:49:47.998Z,97847.00
2019-05-11T13:55:43.426Z,97813.00
2019-05-11T13:58:31.434Z,97805.00
2019-05-11T14:01:19.865Z,97792.00
2019-05-11T14:15:58.692Z,97847.00
2019-05-11T14:18:48.763Z,97823.00
2019-05-11T14:24:30.817Z,97804.00
2019-05-11T14:27:19.094Z,97841.00
2019-05-11T14:32:54.592Z,97839.00
2019-05-11T14:35:35.611Z,97846.00
2019-05-11T14:38:18.787Z,97863.00
2019-05-11T14:40:59.895Z,97880.00
2019-05-11T14:43:41.402Z,97841.00
2019-05-11T14:46:22.861Z,97864.00
2019-05-11T14:49:03.619Z,97886.00
2019-05-11T14:51:44.977Z,97892.00
2019-05-11T14:54:25.601Z,97869.00
2019-05-11T14:57:08.071Z,97885.00
2019-05-11T14:59:49.049Z,97891.00
2019-05-11T15:02:49.615Z,97885.00
2019-05-11T15:05:31.073Z,97890.00
2019-05-11T15:08:12.743Z,97926.00
2019-05-11T15:10:53.621Z,97918.00
2019-05-11T15:13:35.170Z,97870.00
2019-05-11T15:16:15.940Z,97933.00
2019-05-11T15:18:58.597Z,97931.00
2019-05-11T15:21:40.108Z,97961.00
2019-05-11T15:24:21.520Z,97891.00
2019-05-11T15:27:03.008Z,97919.00
2019-05-11T15:29:44.601Z,97923.00
2019-05-11T15:32:28.373Z,97922.00
2019-05-11T15:35:08.382Z,97938.00
2019-05-11T15:37:49.585Z,97942.00
2019-05-11T15:40:30.945Z,97949.00
2019-05-11T15:43:12.574Z,97910.00
2019-05-11T15:45:53.153Z,97983.00
2019-05-11T15:48:33.791Z,97938.00
2019-05-11T15:51:15.235Z,97937.00
2019-05-11T15:53:58.701Z,97950.00
2019-05-11T15:56:39.196Z,97984.00
2019-05-11T15:59:20.683Z,97945.00
2019-05-11T16:02:02.013Z,97955.00
2019-05-11T16:04:42.654Z,97980.00
2019-05-11T16:07:24.194Z,97900.00
2019-05-11T16:10:05.363Z,97962.00
2019-05-11T16:12:48.563Z,97973.00
2019-05-11T16:15:29.753Z,97888.00
2019-05-11T16:18:10.436Z,97982.00
2019-05-11T16:20:51.715Z,97984.00
2019-05-11T16:23:32.432Z,97986.00
2019-05-11T16:26:13.890Z,98031.00
2019-05-11T16:28:54.646Z,98003.00
2019-05-11T16:31:37.722Z,98119.00
2019-05-11T16:34:18.502Z,98003.00
2019-05-11T16:36:59.631Z,98006.00
2019-05-11T16:39:40.221Z,98030.00
2019-05-11T16:42:21.838Z,98027.00
2019-05-11T16:45:03.485Z,98060.00
2019-05-11T16:47:45.182Z,98048.00
2019-05-11T16:50:28.070Z,98054.00
2019-05-11T16:53:08.546Z,98027.00
2019-05-11T16:55:49.818Z,98004.00
2019-05-11T16:58:31.037Z,98038.00
2019-05-11T17:01:12.520Z,98049.00
2019-05-11T17:03:52.203Z,98100.00
2019-05-11T17:06:33.213Z,98096.00
2019-05-11T17:09:13.889Z,98057.00
2019-05-11T17:11:54.387Z,98062.00
2019-05-11T17:14:38.870Z,98088.00
2019-05-11T17:17:22.523Z,98119.00
2019-05-11T17:20:02.718Z,98094.00
2019-05-11T17:22:43.971Z,98123.00
2019-05-11T17:25:23.692Z,98077.00
2019-05-11T17:28:09.203Z,98124.00
2019-05-11T17:30:48.123Z,98106.00
2019-05-11T17:33:29.341Z,98093.00
2019-05-11T17:36:10.043Z,98122.00
2019-05-11T17:38:51.302Z,98138.00
2019-05-11T17:41:32.698Z,98116.00
2019-05-11T17:44:14.066Z,98125.00
2019-05-11T17:46:57.720Z,98134.00
2019-05-11T17:49:38.419Z,98141.00
2019-05-11T17:52:19.535Z,98136.00
2019-05-11T17:55:00.929Z,98135.00
2019-05-11T17:57:42.164Z,98143.00
2019-05-11T18:00:23.662Z,98139.00
2019-05-11T18:03:07.367Z,98177.00
2019-05-11T18:08:14.640Z,98085.00
2019-05-11T18:10:55.611Z,98194.00
2019-05-11T18:13:39.309Z,98173.00
2019-05-11T18:16:20.706Z,98180.00
2019-05-11T18:19:02.364Z,98187.00
2019-05-11T18:21:43.537Z,98189.00
2019-05-11T18:24:25.092Z,98201.00
2019-05-11T18:27:08.173Z,98202.00
2019-05-11T18:30:20.981Z,98239.00
2019-05-11T18:38:21.316Z,98231.00
2019-05-11T18:49:58.729Z,98279.00
2019-05-11T18:52:42.652Z,98308.00
2019-05-11T18:55:27.948Z,98314.00
2019-05-11T19:01:17.461Z,98332.00
2019-05-11T19:04:00.153Z,98356.00
2019-05-11T19:09:29.515Z,98405.00
2019-05-11T19:12:31.893Z,98356.00
2019-05-11T19:15:07.746Z,98360.00
2019-05-11T19:20:45.360Z,98385.00
2019-05-11T19:23:38.562Z,98382.00
2019-05-11T19:26:12.096Z,98393.00
2019-05-11T19:29:00.877Z,98427.00
2019-05-11T19:31:43.661Z,98429.00
2019-05-11T19:40:41.004Z,98412.00
2019-05-11T19:45:53.716Z,98427.00
2019-05-11T19:52:17.890Z,98415.00
2019-05-11T19:54:20.171Z,98473.00
2019-05-11T19:57:03.322Z,98375.00
2019-05-11T19:59:48.084Z,98461.00
2019-05-11T20:02:31.143Z,98467.00
2019-05-11T20:05:12.420Z,98489.00
2019-05-11T20:07:53.615Z,98400.00
2019-05-11T20:16:49.940Z,98503.00
2019-05-11T20:19:18.769Z,98541.00
2019-05-11T20:22:00.229Z,98487.00
2019-05-11T20:27:40.633Z,98499.00
2019-05-11T20:30:30.588Z,98536.00
2019-05-11T20:35:55.126Z,98525.00
2019-05-11T20:38:38.313Z,98542.00
2019-05-11T20:41:22.407Z,98540.00
2019-05-11T20:46:48.619Z,98572.00
2019-05-11T20:49:31.085Z,98553.00
2019-05-11T20:52:14.843Z,98560.00
2019-05-11T20:54:58.317Z,98642.00
2019-05-11T21:00:29.446Z,98615.00
2019-05-11T21:08:41.354Z,98593.00
2019-05-11T21:11:23.590Z,98598.00
2019-05-11T21:14:07.765Z,98518.00
2019-05-11T21:16:48.923Z,98640.00
2019-05-11T21:19:30.134Z,98566.00
2019-05-11T21:24:58.211Z,98619.00
2019-05-11T21:30:23.376Z,98575.00
2019-05-11T21:33:04.118Z,98643.00
2019-05-11T21:35:44.881Z,98643.00
2019-05-11T21:38:29.449Z,98679.00
2019-05-11T21:41:08.897Z,98658.00
2019-05-11T21:43:49.723Z,98661.00
2019-05-11T21:46:31.106Z,98670.00
2019-05-11T21:49:11.779Z,98688.00
2019-05-11T21:52:03.932Z,98699.00
2019-05-11T21:54:35.644Z,98708.00
2019-05-11T21:57:18.452Z,98684.00
2019-05-11T22:00:00.617Z,98694.00
2019-05-11T22:02:41.694Z,98729.00
2019-05-11T22:05:22.767Z,98737.00
2019-05-11T22:08:03.555Z,98710.00
2019-05-11T22:10:45.191Z,98723.00
2019-05-11T22:13:28.839Z,98718.00
2019-05-11T22:16:09.716Z,98719.00
2019-05-11T22:18:50.452Z,98732.00
2019-05-11T22:21:31.204Z,98729.00
2019-05-11T22:24:12.049Z,98738.00
2019-05-11T22:26:53.170Z,98769.00
2019-05-11T22:29:33.922Z,98739.00
2019-05-11T22:32:17.758Z,98748.00
2019-05-11T22:34:58.457Z,98738.00
2019-05-11T22:37:39.263Z,98761.00
2019-05-11T22:40:19.959Z,98771.00
2019-05-11T22:43:01.291Z,98690.00
2019-05-11T22:45:43.073Z,98769.00
2019-05-11T22:48:24.513Z,98775.00
2019-05-11T22:51:07.829Z,98785.00
2019-05-11T22:53:50.283Z,98795.00
2019-05-11T22:56:30.482Z,98807.00
2019-05-11T22:59:11.235Z,98808.00
2019-05-11T23:01:52.090Z,98804.00
2019-05-11T23:04:32.921Z,98780.00
2019-05-11T23:07:13.772Z,98859.00
2019-05-11T23:09:55.056Z,98859.00
2019-05-11T23:12:37.942Z,98851.00
2019-05-11T23:15:19.223Z,98870.00
2019-05-11T23:18:00.213Z,98880.00
2019-05-11T23:20:41.216Z,98856.00
2019-05-11T23:23:21.943Z,98879.00
2019-05-11T23:26:03.455Z,98823.00
2019-05-11T23:28:44.987Z,98851.00
2019-05-11T23:31:27.856Z,98772.00
2019-05-11T23:34:09.369Z,98776.00
2019-05-11T23:36:50.880Z,98904.00
2019-05-11T23:39:32.453Z,98811.00
2019-05-11T23:42:14.054Z,98880.00
2019-05-11T23:44:55.599Z,98905.00
2019-05-11T23:47:39.005Z,98882.00
2019-05-11T23:50:19.447Z,98885.00
2019-05-11T23:53:06.627Z,98883.00
2019-05-11T23:55:43.384Z,98893.00
2019-05-11T23:58:24.340Z,98890.00
